Delphi, Ohio
Current Conditions -  °F | °C
As of 10:52 AM on Thursday 27 Nov 2014 (Local Time) from KMFD Reporting Station
Light Snow Light Snow  
Wind Chill: 19°   Ceiling: 1700
Heat Index: 28°   Visibility: 3mi
Dew Point: 24°   Wind: 9mph
Humidity: 85%   Direction: 300°WNW
Pressure: 30.15"   Gusts: NA
Location:  41.0768°N, 82.7214°W
Report Text: KMFD 271552Z 30008KT 3SM -SN BR SCT012 BKN017 OVC055 M02/M04 A3015 RMK AO2 SNB41 SLP227 P0000 T10221044
Loading
Personal Weather Stations






























Interactive Weather Map New forecast layout! Learn more

10-Day Weather Forecast

Advertisements
Track Severe Weather on mobile